Funseeker — SVA7628 — position and weather

sailwx.info

Track history (hours):
 
Tides and Currents Weather Stations Pressure Air Temp Water Temp Dewpoint Dewpoint Depression Visibility Wind Speed Wind Dir Waves Ship Positions

Funseeker

Last reported at 2018-Jun-25 12:53 UTC. Time now 2018-Jun-25 15:50 UTC.
Position N 37°26' E 025°24'.

Length 16 m.

Type: Pleasure craft. MMSI: 239999300.

Date/timePositionNaut miles runAvg speedWind from/ knotsBaromVisibWave heightAir tempDewpointWater temp
2018-Jun-25 12:53N 37°26' E 025°24'  
2018-Jun-22 15:27N 37°28' E 025°19'4 9.4
2018-Jun-22 15:00N 37°24' E 025°21'1 1.8
2018-Jun-22 14:20N 37°25' E 025°22'0 0.0
2018-Jun-22 13:59N 37°25' E 025°22'0 0.0
2018-Jun-22 12:59N 37°25' E 025°22'0 0.0
2018-Jun-22 12:26N 37°25' E 025°22'0 0.0
2018-Jun-22 11:50N 37°25' E 025°22'0 0.0
2018-Jun-22 11:26N 37°25' E 025°22'0 0.0
2018-Jun-22 10:59N 37°25' E 025°22'0 0.0
2018-Jun-22 09:44N 37°25' E 025°22'0 0.0
2018-Jun-22 09:20N 37°25' E 025°22'0 0.0
2018-Jun-22 08:56N 37°25' E 025°22'0 0.0
2018-Jun-22 07:38N 37°25' E 025°22'0 0.0
2018-Jun-22 02:38N 37°25' E 025°22'0 0.0
2018-Jun-22 01:26N 37°25' E 025°22'0 0.0
2018-Jun-21 23:29N 37°25' E 025°22'0 0.0
2018-Jun-21 21:59N 37°25' E 025°22'0 0.0
2018-Jun-21 21:20N 37°25' E 025°22'0 0.0
2018-Jun-21 20:53N 37°25' E 025°22'0 0.0
2018-Jun-21 20:29N 37°25' E 025°22'0 0.0
2018-Jun-21 19:50N 37°25' E 025°22'0 0.0
2018-Jun-21 19:29N 37°25' E 025°22'0 0.0
2018-Jun-21 18:56N 37°25' E 025°22'0 0.0
2018-Jun-21 17:26N 37°25' E 025°22'0 0.0
2018-Jun-21 15:50N 37°25' E 025°22'0 0.4
2018-Jun-21 15:28N 37°25' E 025°22'2 2.9
2018-Jun-21 14:55N 37°25' E 025°20'0 0.1
2018-Jun-21 14:26N 37°25' E 025°20'0 0.0
2018-Jun-21 13:58N 37°25' E 025°20'0 0.1
2018-Jun-21 13:26N 37°25' E 025°20'0 0.0
2018-Jun-21 12:53N 37°25' E 025°20'0 0.0
2018-Jun-21 12:26N 37°25' E 025°20'0 0.0
2018-Jun-21 11:50N 37°25' E 025°20'514.1
2018-Jun-21 11:30N 37°22' E 025°16'1 2.3
2018-Jun-21 10:52N 37°23' E 025°14'0 0.0
2018-Jun-21 07:54N 37°23' E 025°14'1 0.0
2018-Jun-20 10:07N 37°23' E 025°16'3 0.2
2018-Jun-19 16:26N 37°24' E 025°19'4 8.3
2018-Jun-19 15:59N 37°25' E 025°24'1 2.0
2018-Jun-19 15:24N 37°25' E 025°22'1 0.8
2018-Jun-19 13:36N 37°25' E 025°20'1 5.8
2018-Jun-19 13:27N 37°25' E 025°19'4 1.2
2018-Jun-19 09:38N 37°23' E 025°14'1 1.3
2018-Jun-19 08:38N 37°24' E 025°16'0 0.0
2018-Jun-19 08:08N 37°24' E 025°16'0 0.1
2018-Jun-19 07:58N 37°24' E 025°16'5 0.4
2018-Jun-18 17:45N 37°28' E 025°19'712.2
2018-Jun-18 17:12N 37°22' E 025°15'1 2.4
2018-Jun-18 16:50N 37°23' E 025°14'0 0.0
2018-Jun-18 16:26N 37°23' E 025°14'0 0.0
2018-Jun-18 15:44N 37°23' E 025°14'0 0.0
2018-Jun-18 15:02N 37°23' E 025°14'0 0.0
2018-Jun-18 14:50N 37°23' E 025°14'0 0.0
2018-Jun-18 14:05N 37°23' E 025°14'0 0.0
2018-Jun-18 13:53N 37°23' E 025°14'0 0.6
2018-Jun-18 13:29N 37°23' E 025°14'  
Track history (hours):
 
Tides and Currents Weather Stations Pressure Air Temp Water Temp Dewpoint Dewpoint Depression Visibility Wind Speed Wind Dir Waves Ship Positions

Funseeker

Last reported at 2018-Jun-25 12:53 UTC. Time now 2018-Jun-25 15:50 UTC.
Position N 37°26' E 025°24'.

Length 16 m.

Type: Pleasure craft. MMSI: 239999300.

Date/timePositionNaut miles runAvg speedWind from/ knotsBaromVisibWave heightAir tempDewpointWater temp
2018-Jun-25 12:53N 37°26' E 025°24'  
2018-Jun-22 15:27N 37°28' E 025°19'4 9.4
2018-Jun-22 15:00N 37°24' E 025°21'1 1.8
2018-Jun-22 14:20N 37°25' E 025°22'0 0.0
2018-Jun-22 13:59N 37°25' E 025°22'0 0.0
2018-Jun-22 12:59N 37°25' E 025°22'0 0.0
2018-Jun-22 12:26N 37°25' E 025°22'0 0.0
2018-Jun-22 11:50N 37°25' E 025°22'0 0.0
2018-Jun-22 11:26N 37°25' E 025°22'0 0.0
2018-Jun-22 10:59N 37°25' E 025°22'0 0.0
2018-Jun-22 09:44N 37°25' E 025°22'0 0.0
2018-Jun-22 09:20N 37°25' E 025°22'0 0.0
2018-Jun-22 08:56N 37°25' E 025°22'0 0.0
2018-Jun-22 07:38N 37°25' E 025°22'0 0.0
2018-Jun-22 02:38N 37°25' E 025°22'0 0.0
2018-Jun-22 01:26N 37°25' E 025°22'0 0.0
2018-Jun-21 23:29N 37°25' E 025°22'0 0.0
2018-Jun-21 21:59N 37°25' E 025°22'0 0.0
2018-Jun-21 21:20N 37°25' E 025°22'0 0.0
2018-Jun-21 20:53N 37°25' E 025°22'0 0.0
2018-Jun-21 20:29N 37°25' E 025°22'0 0.0
2018-Jun-21 19:50N 37°25' E 025°22'0 0.0
2018-Jun-21 19:29N 37°25' E 025°22'0 0.0
2018-Jun-21 18:56N 37°25' E 025°22'0 0.0
2018-Jun-21 17:26N 37°25' E 025°22'0 0.0
2018-Jun-21 15:50N 37°25' E 025°22'0 0.4
2018-Jun-21 15:28N 37°25' E 025°22'2 2.9
2018-Jun-21 14:55N 37°25' E 025°20'0 0.1
2018-Jun-21 14:26N 37°25' E 025°20'0 0.0
2018-Jun-21 13:58N 37°25' E 025°20'0 0.1
2018-Jun-21 13:26N 37°25' E 025°20'0 0.0
2018-Jun-21 12:53N 37°25' E 025°20'0 0.0
2018-Jun-21 12:26N 37°25' E 025°20'0 0.0
2018-Jun-21 11:50N 37°25' E 025°20'514.1
2018-Jun-21 11:30N 37°22' E 025°16'1 2.3
2018-Jun-21 10:52N 37°23' E 025°14'0 0.0
2018-Jun-21 07:54N 37°23' E 025°14'1 0.0
2018-Jun-20 10:07N 37°23' E 025°16'3 0.2
2018-Jun-19 16:26N 37°24' E 025°19'4 8.3
2018-Jun-19 15:59N 37°25' E 025°24'1 2.0
2018-Jun-19 15:24N 37°25' E 025°22'1 0.8
2018-Jun-19 13:36N 37°25' E 025°20'1 5.8
2018-Jun-19 13:27N 37°25' E 025°19'4 1.2
2018-Jun-19 09:38N 37°23' E 025°14'1 1.3
2018-Jun-19 08:38N 37°24' E 025°16'0 0.0
2018-Jun-19 08:08N 37°24' E 025°16'0 0.1
2018-Jun-19 07:58N 37°24' E 025°16'5 0.4
2018-Jun-18 17:45N 37°28' E 025°19'712.2
2018-Jun-18 17:12N 37°22' E 025°15'1 2.4
2018-Jun-18 16:50N 37°23' E 025°14'0 0.0
2018-Jun-18 16:26N 37°23' E 025°14'0 0.0
2018-Jun-18 15:44N 37°23' E 025°14'0 0.0
2018-Jun-18 15:02N 37°23' E 025°14'0 0.0
2018-Jun-18 14:50N 37°23' E 025°14'0 0.0
2018-Jun-18 14:05N 37°23' E 025°14'0 0.0
2018-Jun-18 13:53N 37°23' E 025°14'0 0.6
2018-Jun-18 13:29N 37°23' E 025°14'  

Dump ship's entire track history